Time;durP1;ratioP1;P1;durP2;ratioP2;P2;SDS_P1;SDS_P2;PMS_P1;PMS_P2;Temp;Humidity;BMP_temperature;BMP_pressure;BME280_temperature;BME280_humidity;BME280_pressure;Samples;Min_cycle;Max_cycle;Signal;HPM_P1;HPM_P2
2021/12/10 00:00:57;;;;;;;38.58;24.60;;;4.70;99.90;;;;;;4965231;28;20041;-65
2021/12/10 00:03:33;;;;;;;37.42;24.50;;;4.70;99.90;;;;;;4960566;28;20023;-65
2021/12/10 00:06:04;;;;;;;38.30;25.13;;;4.80;99.90;;;;;;4947670;28;20047;-64
2021/12/10 00:08:34;;;;;;;37.33;23.45;;;4.80;99.90;;;;;;4957545;28;20058;-65
2021/12/10 00:11:12;;;;;;;33.42;22.92;;;4.80;99.90;;;;;;4967767;28;20035;-65
2021/12/10 00:13:40;;;;;;;37.80;23.83;;;4.90;99.90;;;;;;4956200;28;20130;-65
2021/12/10 00:16:06;;;;;;;35.05;23.17;;;4.80;99.90;;;;;;4964004;28;20494;-64
2021/12/10 00:18:35;;;;;;;30.80;23.17;;;4.90;99.90;;;;;;4960843;28;20042;-64
2021/12/10 00:21:03;;;;;;;36.60;23.65;;;4.90;99.90;;;;;;4959250;28;20043;-65
2021/12/10 00:23:31;;;;;;;32.15;24.65;;;4.90;99.90;;;;;;4955992;28;20476;-65
2021/12/10 00:25:59;;;;;;;36.85;22.63;;;4.90;99.90;;;;;;4964667;28;20476;-65
2021/12/10 00:28:26;;;;;;;37.28;21.80;;;4.80;99.90;;;;;;4958694;28;20491;-65
2021/12/10 00:34:11;;;;;;;37.83;22.63;;;4.90;99.90;;;;;;4948652;28;20043;-65
2021/12/10 00:36:38;;;;;;;35.10;22.50;;;4.90;99.90;;;;;;4962787;28;20035;-65
2021/12/10 00:39:11;;;;;;;34.63;21.30;;;4.90;99.90;;;;;;4955160;28;20082;-65
2021/12/10 00:41:38;;;;;;;31.77;20.38;;;4.80;99.90;;;;;;4962093;28;20078;-65
2021/12/10 00:44:05;;;;;;;31.58;20.98;;;4.80;99.90;;;;;;4955135;28;20499;-65
2021/12/10 00:46:31;;;;;;;28.63;19.08;;;4.90;99.90;;;;;;4964189;28;20508;-65
2021/12/10 00:48:57;;;;;;;35.45;19.45;;;4.90;99.90;;;;;;4953155;28;20047;-65
2021/12/10 00:51:24;;;;;;;32.17;18.98;;;4.90;99.90;;;;;;4961624;28;20041;-65
2021/12/10 00:53:49;;;;;;;27.85;18.98;;;4.90;99.90;;;;;;4957676;28;20034;-65
2021/12/10 00:56:15;;;;;;;26.33;17.98;;;4.90;99.90;;;;;;4962057;28;20595;-65
2021/12/10 00:58:41;;;;;;;30.20;18.58;;;4.90;99.90;;;;;;4957447;28;20039;-65
2021/12/10 01:01:14;;;;;;;31.45;19.33;;;4.90;99.90;;;;;;4946876;28;20081;-65
2021/12/10 01:03:53;;;;;;;31.00;16.90;;;4.80;99.90;;;;;;4955227;28;20105;-65
2021/12/10 01:06:22;;;;;;;36.53;18.42;;;4.90;99.90;;;;;;4962495;28;20166;-66
2021/12/10 01:08:53;;;;;;;28.75;15.85;;;4.90;99.90;;;;;;4959991;28;20113;-66
2021/12/10 01:11:24;;;;;;;22.42;13.07;;;4.90;99.90;;;;;;4961124;28;20038;-66
2021/12/10 01:13:55;;;;;;;22.25;13.70;;;4.90;99.90;;;;;;4966691;28;20078;-66
2021/12/10 01:27:11;;;;;;;23.63;14.20;;;4.90;99.90;;;;;;4958924;28;20050;-66
2021/12/10 01:29:43;;;;;;;26.55;15.18;;;4.80;99.90;;;;;;4956610;28;20039;-66
2021/12/10 01:32:13;;;;;;;21.40;13.80;;;4.80;99.90;;;;;;4962346;28;20480;-66
2021/12/10 01:34:40;;;;;;;28.05;14.07;;;4.80;99.90;;;;;;4963036;28;20510;-66
2021/12/10 01:37:06;;;;;;;22.02;13.35;;;4.70;99.90;;;;;;4956725;28;20078;-66
2021/12/10 01:39:37;;;;;;;25.08;13.25;;;4.70;99.90;;;;;;4962412;28;20132;-66
2021/12/10 01:45:04;;;;;;;18.63;11.07;;;4.70;99.90;;;;;;4939341;28;20051;-66
2021/12/10 01:47:36;;;;;;;22.15;12.63;;;4.70;99.90;;;;;;4954837;28;20035;-66
2021/12/10 01:50:07;;;;;;;26.55;13.43;;;4.70;99.90;;;;;;4962658;28;20053;-66
2021/12/10 01:52:33;;;;;;;20.40;12.68;;;4.70;99.90;;;;;;4954714;28;20031;-66
2021/12/10 01:55:01;;;;;;;22.95;12.93;;;4.70;99.90;;;;;;4959817;28;20042;-66
2021/12/10 01:57:30;;;;;;;22.48;13.38;;;4.70;99.90;;;;;;4952877;28;20046;-66
2021/12/10 01:59:56;;;;;;;24.05;13.20;;;4.70;99.90;;;;;;4963918;28;20054;-66
2021/12/10 02:02:26;;;;;;;19.58;14.13;;;4.70;99.90;;;;;;4954789;28;20034;-66
2021/12/10 02:04:52;;;;;;;23.15;13.55;;;4.60;99.90;;;;;;4959255;28;20051;-66
2021/12/10 02:07:21;;;;;;;23.70;13.60;;;4.60;99.90;;;;;;4940979;28;20039;-66
2021/12/10 02:09:47;;;;;;;25.10;14.10;;;4.60;99.90;;;;;;4962991;28;20035;-66
2021/12/10 02:12:15;;;;;;;24.63;14.20;;;4.60;99.90;;;;;;4955606;28;20117;-66
2021/12/10 02:14:42;;;;;;;27.77;15.90;;;4.60;99.90;;;;;;4967110;28;20078;-66
2021/12/10 02:17:08;;;;;;;28.08;15.18;;;4.60;99.90;;;;;;4936126;28;20031;-66
2021/12/10 02:19:35;;;;;;;24.20;14.05;;;4.60;99.90;;;;;;4964435;28;20061;-66
2021/12/10 02:22:03;;;;;;;27.15;14.90;;;4.70;99.90;;;;;;4955119;28;20450;-66
2021/12/10 02:24:28;;;;;;;28.30;15.50;;;4.70;99.90;;;;;;4959193;28;20664;-66
2021/12/10 02:27:01;;;;;;;26.65;16.17;;;4.60;99.90;;;;;;4956167;28;20121;-66
2021/12/10 02:29:29;;;;;;;18.50;14.32;;;4.60;99.90;;;;;;4958705;28;20079;-66
2021/12/10 02:31:55;;;;;;;26.05;15.15;;;4.70;99.90;;;;;;4954664;28;20042;-66
2021/12/10 02:34:23;;;;;;;20.08;13.88;;;4.60;99.90;;;;;;4958430;28;20098;-66
2021/12/10 02:36:49;;;;;;;21.55;14.48;;;4.60;99.90;;;;;;4961739;28;20063;-66
2021/12/10 02:39:19;;;;;;;19.75;12.38;;;4.60;99.90;;;;;;4940575;28;20047;-66
2021/12/10 02:41:47;;;;;;;20.70;12.50;;;4.60;99.90;;;;;;4965185;28;20402;-66
2021/12/10 02:44:17;;;;;;;22.23;13.00;;;4.60;99.90;;;;;;4959610;28;20046;-66
2021/12/10 02:46:43;;;;;;;17.08;12.75;;;4.60;99.90;;;;;;4959005;28;20070;-66
2021/12/10 02:49:11;;;;;;;21.65;13.48;;;4.60;99.90;;;;;;4955235;28;20067;-66
2021/12/10 02:51:37;;;;;;;22.40;13.52;;;4.60;99.90;;;;;;4966009;28;20070;-66
2021/12/10 02:54:09;;;;;;;22.33;12.98;;;4.60;99.90;;;;;;4956375;28;20130;-66
2021/12/10 02:56:36;;;;;;;18.02;13.00;;;4.60;99.90;;;;;;4963298;28;20071;-66
2021/12/10 02:59:02;;;;;;;20.80;12.98;;;4.60;99.90;;;;;;4939947;28;20105;-66
2021/12/10 03:01:36;;;;;;;23.42;12.55;;;4.60;99.90;;;;;;4968307;28;20043;-66
2021/12/10 03:04:03;;;;;;;21.23;12.80;;;4.60;99.90;;;;;;4957733;28;20484;-66
2021/12/10 03:06:31;;;;;;;21.55;13.35;;;4.60;99.90;;;;;;4960927;28;20419;-66
2021/12/10 03:08:57;;;;;;;21.60;13.13;;;4.60;99.90;;;;;;4962137;28;20086;-66
2021/12/10 03:11:27;;;;;;;18.85;12.30;;;4.50;99.90;;;;;;4965614;28;20043;-66
2021/12/10 03:13:54;;;;;;;20.02;12.93;;;4.60;99.90;;;;;;4957225;28;20035;-66
2021/12/10 03:16:21;;;;;;;21.45;12.38;;;4.50;99.90;;;;;;4950284;28;20058;-66
2021/12/10 03:18:47;;;;;;;22.52;14.63;;;4.50;99.90;;;;;;4961419;28;20043;-66
2021/12/10 03:21:13;;;;;;;21.17;14.48;;;4.50;99.90;;;;;;4952641;28;20043;-66
2021/12/10 03:23:42;;;;;;;20.83;14.50;;;4.50;99.90;;;;;;4960912;28;20043;-66
2021/12/10 03:26:14;;;;;;;19.13;13.23;;;4.50;99.90;;;;;;4958678;28;20050;-66
2021/12/10 03:28:42;;;;;;;19.13;13.40;;;4.50;99.90;;;;;;4965374;28;20273;-66
2021/12/10 03:31:09;;;;;;;22.35;15.60;;;4.40;99.90;;;;;;4958592;28;20039;-66
2021/12/10 03:33:36;;;;;;;19.98;14.88;;;4.40;99.90;;;;;;4961331;28;20030;-66
2021/12/10 03:36:03;;;;;;;20.45;13.82;;;4.40;99.90;;;;;;4954354;28;20082;-66
2021/12/10 03:38:29;;;;;;;21.60;13.63;;;4.40;99.90;;;;;;4948035;28;20043;-66
2021/12/10 03:40:55;;;;;;;20.85;13.20;;;4.40;99.90;;;;;;4959361;28;20299;-66
2021/12/10 03:43:22;;;;;;;15.38;11.45;;;4.30;99.90;;;;;;4966078;28;20030;-66
2021/12/10 03:45:51;;;;;;;18.92;12.75;;;4.40;99.90;;;;;;4940935;28;20043;-66
2021/12/10 03:48:20;;;;;;;21.50;12.52;;;4.30;99.90;;;;;;4964941;28;20039;-66
2021/12/10 03:50:48;;;;;;;18.92;11.80;;;4.30;99.90;;;;;;4959849;28;20576;-66
2021/12/10 03:53:15;;;;;;;18.50;12.60;;;4.30;99.90;;;;;;4965094;28;20039;-66
2021/12/10 03:55:41;;;;;;;18.60;13.27;;;4.20;99.90;;;;;;4952059;28;20086;-66
2021/12/10 03:58:07;;;;;;;18.55;13.15;;;4.20;99.90;;;;;;4965693;28;20557;-66
2021/12/10 04:00:41;;;;;;;18.95;13.45;;;4.20;99.90;;;;;;4938870;28;20042;-66
2021/12/10 04:03:07;;;;;;;17.75;13.10;;;4.10;99.90;;;;;;4962732;28;20422;-66
2021/12/10 04:05:33;;;;;;;18.65;13.10;;;4.10;99.90;;;;;;4963477;28;20046;-66
2021/12/10 04:07:59;;;;;;;18.40;13.43;;;4.10;99.90;;;;;;4947601;28;20042;-66
2021/12/10 04:10:25;;;;;;;18.63;13.95;;;4.00;99.90;;;;;;4958568;28;20031;-66
2021/12/10 04:12:51;;;;;;;23.45;15.10;;;3.90;99.90;;;;;;4954834;28;20058;-66
2021/12/10 04:15:22;;;;;;;22.25;15.63;;;3.90;99.90;;;;;;4966616;28;20066;-66
2021/12/10 04:17:50;;;;;;;21.60;15.13;;;3.90;99.90;;;;;;4954682;28;20082;-66
2021/12/10 04:20:17;;;;;;;26.90;16.55;;;3.80;99.90;;;;;;4965973;28;20488;-66
2021/12/10 04:22:46;;;;;;;22.20;16.45;;;3.70;99.90;;;;;;4951668;28;20074;-66
2021/12/10 04:25:15;;;;;;;24.17;16.88;;;3.60;99.90;;;;;;4961567;28;20055;-66
2021/12/10 04:27:43;;;;;;;24.70;17.63;;;3.60;99.90;;;;;;4940678;28;20046;-66
2021/12/10 04:30:12;;;;;;;24.33;17.88;;;3.50;99.90;;;;;;4961820;28;20058;-66
2021/12/10 04:32:38;;;;;;;24.80;17.00;;;3.50;99.90;;;;;;4957925;28;20089;-66
2021/12/10 04:35:06;;;;;;;27.63;17.23;;;3.40;99.90;;;;;;4963674;28;20035;-66
2021/12/10 04:37:31;;;;;;;29.65;18.55;;;3.40;99.90;;;;;;4956546;28;20050;-66
2021/12/10 04:40:00;;;;;;;26.88;17.42;;;3.40;99.90;;;;;;4964196;28;20043;-66
2021/12/10 04:42:25;;;;;;;26.85;18.23;;;3.40;99.90;;;;;;4952970;28;20093;-66
2021/12/10 04:44:53;;;;;;;26.63;18.10;;;3.30;99.90;;;;;;4966108;28;20082;-66
2021/12/10 04:47:19;;;;;;;21.40;17.00;;;3.30;99.90;;;;;;4958461;28;20043;-66
2021/12/10 04:49:45;;;;;;;28.63;17.80;;;3.20;99.90;;;;;;4960713;28;20039;-66
2021/12/10 04:52:11;;;;;;;24.98;17.70;;;3.20;99.90;;;;;;4948003;28;20081;-66
2021/12/10 04:54:37;;;;;;;24.13;17.70;;;3.10;99.90;;;;;;4940439;28;20039;-66
2021/12/10 04:57:04;;;;;;;24.98;17.83;;;3.10;99.90;;;;;;4961883;28;20051;-66
2021/12/10 04:59:31;;;;;;;25.85;16.50;;;3.10;99.90;;;;;;4958171;28;20040;-66
2021/12/10 05:02:00;;;;;;;21.42;16.75;;;3.00;99.90;;;;;;4944711;28;20055;-66
2021/12/10 05:04:27;;;;;;;24.35;18.08;;;3.10;99.90;;;;;;4944121;28;20050;-66
2021/12/10 05:06:53;;;;;;;24.25;16.08;;;3.00;99.90;;;;;;4941617;28;20050;-66
2021/12/10 05:09:20;;;;;;;28.75;18.23;;;3.00;99.90;;;;;;4956058;28;20151;-66
2021/12/10 05:11:47;;;;;;;24.20;18.48;;;3.00;99.90;;;;;;4963930;28;20074;-66
2021/12/10 05:14:14;;;;;;;27.48;19.05;;;3.00;99.90;;;;;;4963260;28;20125;-66
2021/12/10 05:16:44;;;;;;;27.17;17.08;;;3.00;99.90;;;;;;4961662;28;20078;-66
2021/12/10 05:19:12;;;;;;;25.92;18.75;;;2.90;99.90;;;;;;4958143;28;20455;-66
2021/12/10 05:21:39;;;;;;;25.20;18.88;;;2.90;99.90;;;;;;4965432;28;20047;-66
2021/12/10 05:24:06;;;;;;;26.42;19.55;;;2.80;99.90;;;;;;4954680;28;20090;-66
2021/12/10 05:26:33;;;;;;;24.63;18.33;;;2.80;99.90;;;;;;4957476;28;20047;-66
2021/12/10 05:28:59;;;;;;;28.67;18.73;;;2.90;99.90;;;;;;4936967;28;20108;-66
2021/12/10 05:31:25;;;;;;;25.63;18.52;;;2.80;99.90;;;;;;4948887;28;20129;-66
2021/12/10 05:33:51;;;;;;;24.05;17.75;;;2.80;99.90;;;;;;4961799;28;20485;-66
2021/12/10 05:36:17;;;;;;;26.35;19.02;;;2.80;99.90;;;;;;4956889;28;20646;-66
2021/12/10 05:38:43;;;;;;;28.70;18.15;;;2.80;99.90;;;;;;4964909;28;20195;-66
2021/12/10 05:41:10;;;;;;;23.15;18.58;;;2.80;99.90;;;;;;4954711;28;20113;-66
2021/12/10 05:43:38;;;;;;;25.98;18.83;;;2.80;99.90;;;;;;4958882;28;20414;-66
2021/12/10 05:46:04;;;;;;;26.23;18.67;;;2.80;99.90;;;;;;4937499;28;20592;-66
2021/12/10 05:48:30;;;;;;;26.58;18.60;;;2.80;99.90;;;;;;4966046;28;20416;-66
2021/12/10 05:50:56;;;;;;;23.90;17.00;;;2.70;99.90;;;;;;4955868;28;20050;-66
2021/12/10 05:53:24;;;;;;;22.35;17.52;;;2.70;99.90;;;;;;4961450;28;20038;-66
2021/12/10 05:55:50;;;;;;;24.20;17.73;;;2.60;99.90;;;;;;4955148;28;20047;-66
2021/12/10 05:58:17;;;;;;;22.90;17.20;;;2.60;99.90;;;;;;4961220;28;20035;-66
2021/12/10 06:00:50;;;;;;;22.92;16.70;;;2.50;99.90;;;;;;4957248;28;20093;-66
2021/12/10 06:03:16;;;;;;;20.92;16.80;;;2.50;99.90;;;;;;4945313;28;20042;-66
2021/12/10 06:05:44;;;;;;;25.42;17.13;;;2.50;99.90;;;;;;4958203;28;20043;-66
2021/12/10 06:08:11;;;;;;;20.65;16.52;;;2.40;99.90;;;;;;4960427;28;20039;-65
2021/12/10 06:10:37;;;;;;;20.33;16.00;;;2.30;99.90;;;;;;4956913;28;20035;-66
2021/12/10 06:13:05;;;;;;;19.48;15.50;;;2.30;99.90;;;;;;4944345;28;20134;-66
2021/12/10 06:15:31;;;;;;;21.48;16.63;;;2.30;99.90;;;;;;4958595;28;20055;-66
2021/12/10 06:17:57;;;;;;;20.75;15.48;;;2.20;99.90;;;;;;4955516;28;20410;-65
2021/12/10 06:20:28;;;;;;;21.52;15.30;;;2.20;99.90;;;;;;4962333;28;20102;-65
2021/12/10 06:22:54;;;;;;;18.80;14.52;;;2.20;99.90;;;;;;4943557;28;20130;-66
2021/12/10 06:25:20;;;;;;;20.10;16.08;;;2.10;99.90;;;;;;4949328;28;20489;-66
2021/12/10 06:27:46;;;;;;;19.25;15.27;;;2.10;99.90;;;;;;4938485;28;20137;-66
2021/12/10 06:30:19;;;;;;;18.00;14.23;;;2.10;99.90;;;;;;4952443;28;20038;-66
2021/12/10 06:32:46;;;;;;;20.20;14.38;;;2.10;99.90;;;;;;4960736;28;20082;-65
2021/12/10 06:35:17;;;;;;;21.08;15.23;;;2.00;99.90;;;;;;4968637;28;20100;-65
2021/12/10 06:37:44;;;;;;;20.05;14.52;;;2.00;99.90;;;;;;4961034;28;20046;-65
2021/12/10 06:40:13;;;;;;;20.30;13.27;;;2.00;99.90;;;;;;4953847;28;20511;-65
2021/12/10 06:42:39;;;;;;;20.45;14.07;;;2.00;99.90;;;;;;4960702;28;20035;-65
2021/12/10 06:45:10;;;;;;;21.33;14.18;;;1.90;99.90;;;;;;4968116;28;20051;-65
2021/12/10 06:47:36;;;;;;;17.88;14.82;;;1.90;99.90;;;;;;4955108;28;20550;-65
2021/12/10 06:50:04;;;;;;;20.45;14.05;;;1.90;99.90;;;;;;4962184;28;20032;-65
2021/12/10 06:52:30;;;;;;;18.40;13.75;;;1.90;99.90;;;;;;4960487;28;20508;-65
2021/12/10 06:54:56;;;;;;;18.08;13.30;;;1.80;99.90;;;;;;4964200;28;20113;-65
2021/12/10 06:57:21;;;;;;;17.17;14.23;;;1.80;99.90;;;;;;4937857;28;20404;-65
2021/12/10 06:59:47;;;;;;;18.48;13.70;;;1.80;99.90;;;;;;4968799;28;20034;-65
2021/12/10 07:02:13;;;;;;;22.98;14.27;;;1.80;99.90;;;;;;4961318;28;20101;-65
2021/12/10 07:04:41;;;;;;;23.52;14.80;;;1.80;99.90;;;;;;4959004;28;20158;-64
2021/12/10 07:07:11;;;;;;;18.95;14.38;;;1.70;99.90;;;;;;4961777;28;20049;-65
2021/12/10 07:09:37;;;;;;;19.70;13.93;;;1.60;99.90;;;;;;4962545;28;20050;-65
2021/12/10 07:12:04;;;;;;;22.58;15.00;;;1.60;99.90;;;;;;4963935;28;20117;-65
2021/12/10 07:14:30;;;;;;;16.45;13.70;;;1.60;99.90;;;;;;4939756;28;20058;-65
2021/12/10 07:16:58;;;;;;;18.50;13.32;;;1.60;99.90;;;;;;4968607;28;20047;-65
2021/12/10 07:19:26;;;;;;;22.77;13.68;;;1.50;99.90;;;;;;4945727;28;20051;-65
2021/12/10 07:21:53;;;;;;;22.52;14.10;;;1.50;99.90;;;;;;4964432;28;20039;-65
2021/12/10 07:24:19;;;;;;;21.58;13.68;;;1.50;99.90;;;;;;4942279;28;20134;-65
2021/12/10 07:26:46;;;;;;;16.45;12.73;;;1.50;99.90;;;;;;4961558;28;20050;-65
2021/12/10 07:29:12;;;;;;;17.42;13.15;;;1.40;99.90;;;;;;4958875;28;20371;-65
2021/12/10 07:31:41;;;;;;;18.77;13.27;;;1.50;99.90;;;;;;4946572;28;20084;-65
2021/12/10 07:34:07;;;;;;;20.25;13.45;;;1.40;99.90;;;;;;4958613;28;20049;-65
2021/12/10 07:36:34;;;;;;;18.40;12.60;;;1.40;99.90;;;;;;4951334;28;20050;-65
2021/12/10 07:39:00;;;;;;;18.48;12.82;;;1.40;99.90;;;;;;4956430;28;20049;-65
2021/12/10 07:41:26;;;;;;;16.05;12.73;;;1.50;99.90;;;;;;4947470;28;20044;-65
2021/12/10 07:43:52;;;;;;;19.20;13.27;;;1.40;99.90;;;;;;4963976;28;20418;-65
2021/12/10 07:46:18;;;;;;;20.05;12.80;;;1.40;99.90;;;;;;4961220;28;20050;-65
2021/12/10 07:48:44;;;;;;;17.95;12.95;;;1.40;99.90;;;;;;4962854;28;20039;-65
2021/12/10 07:51:16;;;;;;;15.38;12.00;;;1.40;99.90;;;;;;4944546;28;20038;-64
2021/12/10 07:53:43;;;;;;;15.68;11.75;;;1.50;99.90;;;;;;4963351;28;20159;-65
2021/12/10 07:56:11;;;;;;;17.77;12.05;;;1.50;99.90;;;;;;4955271;28;20081;-65
2021/12/10 07:58:40;;;;;;;17.65;10.68;;;1.50;99.90;;;;;;4947292;28;20059;-65
2021/12/10 08:01:09;;;;;;;16.33;11.57;;;1.50;99.90;;;;;;4957554;28;20100;-65
2021/12/10 08:03:35;;;;;;;17.15;11.65;;;1.50;99.90;;;;;;4960325;28;20047;-65
2021/12/10 08:06:01;;;;;;;16.65;11.05;;;1.60;99.90;;;;;;4936262;28;20082;-65
2021/12/10 08:08:27;;;;;;;18.63;11.40;;;1.60;99.90;;;;;;4962393;28;20043;-65
2021/12/10 08:10:53;;;;;;;16.30;10.15;;;1.60;99.90;;;;;;4959915;28;20035;-65
2021/12/10 08:13:22;;;;;;;15.55;11.30;;;1.60;99.90;;;;;;4948930;28;20047;-65
2021/12/10 08:15:52;;;;;;;15.93;11.15;;;1.70;99.90;;;;;;4955900;28;20054;-66
2021/12/10 08:18:19;;;;;;;14.77;10.70;;;1.70;99.90;;;;;;4965004;28;20057;-65
2021/12/10 08:20:45;;;;;;;19.65;10.82;;;1.70;99.90;;;;;;4955501;28;20515;-65
2021/12/10 08:23:10;;;;;;;13.07;8.90;;;1.70;99.90;;;;;;4962877;28;20496;-65
2021/12/10 08:25:36;;;;;;;15.23;10.48;;;1.80;99.90;;;;;;4942304;28;20110;-65
2021/12/10 08:28:04;;;;;;;15.73;12.27;;;1.80;99.90;;;;;;4941179;28;20035;-65
2021/12/10 08:30:31;;;;;;;17.17;11.23;;;1.80;99.90;;;;;;4943530;28;20059;-65
2021/12/10 08:32:57;;;;;;;15.70;10.00;;;1.90;99.90;;;;;;4956817;28;20042;-65
2021/12/10 08:35:30;;;;;;;16.92;9.25;;;1.90;99.90;;;;;;4962478;28;20054;-65
2021/12/10 08:38:00;;;;;;;12.85;9.18;;;1.90;99.90;;;;;;4957390;28;20058;-65
2021/12/10 08:40:30;;;;;;;15.65;9.95;;;1.90;99.90;;;;;;4950455;28;20539;-65
2021/12/10 08:42:56;;;;;;;16.23;9.50;;;1.90;99.90;;;;;;4941998;28;20058;-65
2021/12/10 08:45:23;;;;;;;15.85;9.27;;;2.00;99.90;;;;;;4963739;28;20495;-65
2021/12/10 08:47:51;;;;;;;11.85;8.60;;;2.00;99.90;;;;;;4955143;28;20039;-65
2021/12/10 08:50:22;;;;;;;12.95;8.73;;;2.10;99.90;;;;;;4947390;28;20460;-65
2021/12/10 08:52:50;;;;;;;16.00;9.38;;;2.10;99.90;;;;;;4940904;28;20105;-65
2021/12/10 08:55:17;;;;;;;16.13;10.07;;;2.10;99.90;;;;;;4945557;28;20631;-65
2021/12/10 08:57:44;;;;;;;15.07;8.80;;;2.20;99.90;;;;;;4955995;28;20050;-65
2021/12/10 09:00:11;;;;;;;13.50;9.23;;;2.20;99.90;;;;;;4949487;28;20138;-65
2021/12/10 09:02:38;;;;;;;13.75;8.77;;;2.20;99.90;;;;;;4957288;28;20040;-65
2021/12/10 09:05:09;;;;;;;13.82;8.93;;;2.30;99.90;;;;;;4961289;28;20030;-65
2021/12/10 09:07:36;;;;;;;13.90;8.80;;;2.30;99.90;;;;;;4954200;28;20388;-66
2021/12/10 09:10:04;;;;;;;13.73;8.73;;;2.30;99.90;;;;;;4965513;28;20117;-65
2021/12/10 09:12:30;;;;;;;12.00;8.75;;;2.40;99.90;;;;;;4956311;28;20046;-65
2021/12/10 09:14:57;;;;;;;11.52;8.00;;;2.40;99.90;;;;;;4958318;28;20142;-65
2021/12/10 09:17:28;;;;;;;12.15;8.38;;;2.40;99.90;;;;;;4963670;28;20067;-66
2021/12/10 09:19:57;;;;;;;10.27;7.68;;;2.50;99.90;;;;;;4943553;28;20049;-65
2021/12/10 09:22:23;;;;;;;10.98;8.02;;;2.50;99.90;;;;;;4958458;28;20070;-66
2021/12/10 09:24:51;;;;;;;11.98;7.70;;;2.50;99.90;;;;;;4961502;28;20133;-65
2021/12/10 09:27:17;;;;;;;11.68;8.23;;;2.60;99.90;;;;;;4961698;28;20491;-66
2021/12/10 09:29:46;;;;;;;11.80;7.55;;;2.60;99.90;;;;;;4963258;28;20046;-65
2021/12/10 09:32:16;;;;;;;11.38;7.30;;;2.60;99.90;;;;;;4960519;28;20386;-65
2021/12/10 09:34:43;;;;;;;9.23;7.50;;;2.60;99.90;;;;;;4952233;28;20082;-66
2021/12/10 09:37:10;;;;;;;10.63;6.93;;;2.70;99.90;;;;;;4963254;28;20051;-65
2021/12/10 09:39:36;;;;;;;8.63;6.78;;;2.70;99.90;;;;;;4938114;28;20055;-66
2021/12/10 09:42:03;;;;;;;9.98;7.30;;;2.80;99.90;;;;;;4959143;28;20600;-66
2021/12/10 09:44:29;;;;;;;8.60;6.80;;;2.80;99.90;;;;;;4942835;28;20068;-66
2021/12/10 09:46:56;;;;;;;11.07;6.30;;;2.80;99.90;;;;;;4961978;28;20095;-65
2021/12/10 09:49:24;;;;;;;12.27;7.68;;;2.90;99.90;;;;;;4954129;28;20042;-66
2021/12/10 09:51:54;;;;;;;12.80;6.85;;;2.90;99.90;;;;;;4958338;28;20046;-66
2021/12/10 09:54:23;;;;;;;10.82;7.10;;;3.00;99.90;;;;;;4955909;28;20038;-66
2021/12/10 09:57:04;;;;;;;9.73;6.57;;;3.00;99.90;;;;;;4944413;28;20059;-66
2021/12/10 09:59:31;;;;;;;7.50;5.82;;;3.00;99.90;;;;;;4939658;28;20050;-66
2021/12/10 10:01:59;;;;;;;11.02;6.55;;;3.00;99.90;;;;;;4960980;28;20446;-66
2021/12/10 10:04:27;;;;;;;9.68;6.45;;;3.10;99.90;;;;;;4957991;28;20039;-66
2021/12/10 10:06:59;;;;;;;9.27;6.13;;;3.10;99.90;;;;;;4960908;28;20039;-66
2021/12/10 10:09:26;;;;;;;11.43;6.45;;;3.10;99.90;;;;;;4961267;28;20045;-65
2021/12/10 10:12:00;;;;;;;13.10;6.47;;;3.20;99.90;;;;;;4950905;28;20043;-66
2021/12/10 10:14:26;;;;;;;8.63;6.30;;;3.30;99.90;;;;;;4939222;28;20059;-65
2021/12/10 10:16:54;;;;;;;9.75;6.07;;;3.30;99.90;;;;;;4956050;28;20142;-65
2021/12/10 10:19:21;;;;;;;8.90;5.93;;;3.30;99.90;;;;;;4957939;28;20035;-65
2021/12/10 10:21:50;;;;;;;8.95;5.63;;;3.30;99.90;;;;;;4957695;28;20042;-65
2021/12/10 10:24:18;;;;;;;9.63;5.72;;;3.40;99.90;;;;;;4948760;28;20503;-65
2021/12/10 10:26:54;;;;;;;10.77;6.80;;;3.40;99.90;;;;;;4937941;28;20134;-66
2021/12/10 10:29:23;;;;;;;8.73;6.03;;;3.50;99.90;;;;;;4963088;28;20043;-65
2021/12/10 10:31:54;;;;;;;10.10;6.55;;;3.50;99.90;;;;;;4957671;28;20070;-65
2021/12/10 10:34:22;;;;;;;7.88;5.53;;;3.60;99.90;;;;;;4961933;28;20415;-65
2021/12/10 10:36:49;;;;;;;8.63;5.78;;;3.60;99.90;;;;;;4950324;28;20431;-65
2021/12/10 10:39:19;;;;;;;9.55;5.80;;;3.60;99.90;;;;;;4962886;28;20050;-65
2021/12/10 10:41:49;;;;;;;8.43;5.47;;;3.70;99.90;;;;;;4956273;28;20146;-65
2021/12/10 10:44:17;;;;;;;9.13;5.00;;;3.70;99.90;;;;;;4960880;28;20129;-65
2021/12/10 10:46:43;;;;;;;8.57;4.97;;;3.80;99.90;;;;;;4949886;28;20046;-65
2021/12/10 10:49:09;;;;;;;8.75;5.80;;;3.80;99.90;;;;;;4958438;28;20047;-66
2021/12/10 10:51:40;;;;;;;8.15;5.25;;;3.80;99.90;;;;;;4942624;28;20062;-66
2021/12/10 10:54:11;;;;;;;7.78;4.63;;;3.90;99.90;;;;;;4943670;28;20396;-66
2021/12/10 10:56:43;;;;;;;9.80;5.30;;;3.90;99.90;;;;;;4937007;28;20523;-66
2021/12/10 10:59:18;;;;;;;9.48;4.88;;;3.90;99.90;;;;;;4965058;28;20394;-66
2021/12/10 11:01:57;;;;;;;8.02;5.28;;;4.00;99.90;;;;;;4957075;28;20094;-66
2021/12/10 11:04:32;;;;;;;8.23;4.70;;;4.00;99.90;;;;;;4959867;28;20113;-66
2021/12/10 11:07:07;;;;;;;8.40;4.65;;;4.10;99.90;;;;;;4951519;28;20483;-66
2021/12/10 11:09:35;;;;;;;6.97;4.07;;;4.10;99.90;;;;;;4964237;28;20070;-66
2021/12/10 11:12:07;;;;;;;6.05;4.22;;;4.10;99.90;;;;;;4957718;28;20044;-66
2021/12/10 11:14:45;;;;;;;7.68;4.45;;;4.20;99.90;;;;;;4965660;28;20067;-66
2021/12/10 11:17:15;;;;;;;7.80;4.13;;;4.20;99.90;;;;;;4941637;28;20126;-66
2021/12/10 11:19:51;;;;;;;7.38;4.53;;;4.20;99.90;;;;;;4950036;28;20046;-66
2021/12/10 11:22:17;;;;;;;7.20;3.38;;;4.20;99.90;;;;;;4962520;28;20047;-65
2021/12/10 11:24:51;;;;;;;6.55;4.45;;;4.30;99.90;;;;;;4954401;28;20065;-65
2021/12/10 11:27:17;;;;;;;5.53;4.15;;;4.30;99.90;;;;;;4965959;28;20032;-65
2021/12/10 11:29:48;;;;;;;5.05;4.05;;;4.30;99.90;;;;;;4953227;28;20069;-65
2021/12/10 11:32:46;;;;;;;7.85;3.88;;;4.40;99.90;;;;;;4963022;28;20047;-65
2021/12/10 11:35:25;;;;;;;8.20;4.07;;;4.40;99.90;;;;;;4962893;28;20093;-65
2021/12/10 11:38:04;;;;;;;7.85;3.88;;;4.40;99.90;;;;;;4966444;28;20039;-65
2021/12/10 11:40:40;;;;;;;6.68;3.88;;;4.40;99.90;;;;;;4964925;28;20400;-65
2021/12/10 11:49:21;;;;;;;;;;;4.40;99.90;;;;;;4937303;28;20078;-66
2021/12/10 11:51:54;;;;;;;5.75;3.35;;;4.40;99.90;;;;;;4947179;28;20033;-66
2021/12/10 11:54:38;;;;;;;7.40;3.60;;;4.50;99.90;;;;;;4959544;28;20032;-66
2021/12/10 11:57:19;;;;;;;10.93;5.50;;;4.50;99.90;;;;;;4963887;28;20099;-66
2021/12/10 11:59:48;;;;;;;10.70;5.05;;;4.50;99.90;;;;;;4936196;28;20055;-66
2021/12/10 12:02:21;;;;;;;9.85;4.50;;;4.60;99.90;;;;;;4936614;28;20093;-66
2021/12/10 12:04:54;;;;;;;6.15;4.10;;;4.60;99.90;;;;;;4961336;28;20396;-66
2021/12/10 12:07:38;;;;;;;9.45;3.78;;;4.60;99.90;;;;;;4963712;28;20039;-66
2021/12/10 12:10:20;;;;;;;5.35;3.10;;;4.50;99.90;;;;;;4939416;28;20105;-66
2021/12/10 12:12:46;;;;;;;6.60;3.10;;;4.60;99.90;;;;;;4966037;28;20407;-66
2021/12/10 12:15:17;;;;;;;6.78;3.40;;;4.60;99.90;;;;;;4956043;28;20047;-66
2021/12/10 12:17:50;;;;;;;6.60;3.50;;;4.60;99.90;;;;;;4950599;28;20372;-66
2021/12/10 12:20:23;;;;;;;7.07;2.88;;;4.60;99.90;;;;;;4957729;28;20162;-66
2021/12/10 12:26:13;;;;;;;9.40;3.08;;;4.60;99.90;;;;;;4960359;28;20097;-66
2021/12/10 12:28:49;;;;;;;5.72;3.30;;;4.60;99.90;;;;;;4965401;28;20049;-66
2021/12/10 12:31:18;;;;;;;5.80;2.95;;;4.60;99.90;;;;;;4956044;28;20038;-66
2021/12/10 12:34:14;;;;;;;7.20;2.80;;;4.50;99.90;;;;;;4963209;28;20086;-66
2021/12/10 12:36:51;;;;;;;11.27;3.13;;;4.60;99.90;;;;;;4958460;28;20098;-66
2021/12/10 12:39:36;;;;;;;8.35;2.95;;;4.60;99.90;;;;;;4964620;28;20051;-66
2021/12/10 12:42:06;;;;;;;5.28;3.17;;;4.60;99.90;;;;;;4957108;28;20042;-66
2021/12/10 12:44:40;;;;;;;10.80;3.00;;;4.60;99.90;;;;;;4961127;28;20411;-66
2021/12/10 12:47:26;;;;;;;8.30;3.03;;;4.60;99.90;;;;;;4959597;28;20511;-66
2021/12/10 12:50:18;;;;;;;7.03;2.90;;;4.60;99.90;;;;;;4965331;28;20046;-66
2021/12/10 12:52:48;;;;;;;6.57;2.70;;;4.50;99.90;;;;;;4944453;28;20507;-66
2021/12/10 12:55:52;;;;;;;5.57;2.40;;;4.60;99.90;;;;;;4963361;28;20050;-66
2021/12/10 12:58:18;;;;;;;7.95;2.78;;;4.60;99.90;;;;;;4953067;28;20094;-66
2021/12/10 13:01:17;;;;;;;7.40;2.80;;;4.60;99.90;;;;;;4963452;28;20039;-66
2021/12/10 13:03:45;;;;;;;8.77;3.20;;;4.60;99.90;;;;;;4902456;28;20057;-66
2021/12/10 13:06:17;;;;;;;6.88;2.83;;;4.60;99.90;;;;;;4960803;28;20042;-66
2021/12/10 13:09:06;;;;;;;9.25;2.50;;;4.60;99.90;;;;;;4952571;28;20050;-66
2021/12/10 13:14:38;;;;;;;5.60;3.08;;;4.60;99.90;;;;;;4964464;28;20070;-66
2021/12/10 13:17:21;;;;;;;6.63;3.15;;;4.60;99.90;;;;;;4958550;28;20522;-66
2021/12/10 13:19:47;;;;;;;5.38;2.65;;;4.60;99.90;;;;;;4958110;28;20039;-66
2021/12/10 13:22:18;;;;;;;8.35;2.90;;;4.60;99.90;;;;;;4954421;28;20050;-66